sensor_id;sensor_type;location;lat;lon;timestamp;P1;durP1;ratioP1;P2;durP2;ratioP2
43678;SDS011;29279;50.858;4.392;2022-11-15T00:00:32;33.50;;;18.60;;
43678;SDS011;29279;50.858;4.392;2022-11-15T00:02:58;34.15;;;18.23;;
43678;SDS011;29279;50.858;4.392;2022-11-15T00:05:24;33.53;;;20.35;;
43678;SDS011;29279;50.858;4.392;2022-11-15T00:07:49;34.13;;;19.77;;
43678;SDS011;29279;50.858;4.392;2022-11-15T00:10:15;35.30;;;19.15;;
43678;SDS011;29279;50.858;4.392;2022-11-15T00:12:41;33.75;;;19.25;;
43678;SDS011;29279;50.858;4.392;2022-11-15T00:15:07;30.92;;;19.40;;
43678;SDS011;29279;50.858;4.392;2022-11-15T00:17:33;27.33;;;19.25;;
43678;SDS011;29279;50.858;4.392;2022-11-15T00:19:58;32.33;;;19.50;;
43678;SDS011;29279;50.858;4.392;2022-11-15T00:22:24;32.28;;;20.13;;
43678;SDS011;29279;50.858;4.392;2022-11-15T00:24:50;33.85;;;20.35;;
43678;SDS011;29279;50.858;4.392;2022-11-15T00:27:15;34.70;;;19.67;;
43678;SDS011;29279;50.858;4.392;2022-11-15T00:29:41;37.38;;;20.88;;
43678;SDS011;29279;50.858;4.392;2022-11-15T00:32:11;37.15;;;21.70;;
43678;SDS011;29279;50.858;4.392;2022-11-15T00:34:37;34.22;;;19.70;;
43678;SDS011;29279;50.858;4.392;2022-11-15T00:37:02;35.10;;;21.08;;
43678;SDS011;29279;50.858;4.392;2022-11-15T00:39:28;35.53;;;22.40;;
43678;SDS011;29279;50.858;4.392;2022-11-15T00:41:54;34.35;;;19.85;;
43678;SDS011;29279;50.858;4.392;2022-11-15T00:44:19;33.45;;;20.05;;
43678;SDS011;29279;50.858;4.392;2022-11-15T00:46:45;29.65;;;20.42;;
43678;SDS011;29279;50.858;4.392;2022-11-15T00:49:11;35.28;;;20.75;;
43678;SDS011;29279;50.858;4.392;2022-11-15T00:51:36;32.15;;;20.55;;
43678;SDS011;29279;50.858;4.392;2022-11-15T00:54:02;37.58;;;21.40;;
43678;SDS011;29279;50.858;4.392;2022-11-15T00:56:28;40.38;;;20.90;;
43678;SDS011;29279;50.858;4.392;2022-11-15T00:58:53;29.02;;;19.98;;
43678;SDS011;29279;50.858;4.392;2022-11-15T01:01:19;33.05;;;21.17;;
43678;SDS011;29279;50.858;4.392;2022-11-15T01:03:46;37.33;;;22.60;;
43678;SDS011;29279;50.858;4.392;2022-11-15T01:06:12;39.22;;;22.30;;
43678;SDS011;29279;50.858;4.392;2022-11-15T01:08:38;41.08;;;23.88;;
43678;SDS011;29279;50.858;4.392;2022-11-15T01:11:05;42.63;;;22.92;;
43678;SDS011;29279;50.858;4.392;2022-11-15T01:13:34;40.58;;;24.90;;
43678;SDS011;29279;50.858;4.392;2022-11-15T01:16:15;39.38;;;26.05;;
43678;SDS011;29279;50.858;4.392;2022-11-15T01:18:43;44.55;;;24.27;;
43678;SDS011;29279;50.858;4.392;2022-11-15T01:21:10;37.97;;;23.65;;
43678;SDS011;29279;50.858;4.392;2022-11-15T01:23:37;40.03;;;21.48;;
43678;SDS011;29279;50.858;4.392;2022-11-15T01:26:04;42.38;;;23.33;;
43678;SDS011;29279;50.858;4.392;2022-11-15T01:28:32;40.75;;;23.40;;
43678;SDS011;29279;50.858;4.392;2022-11-15T01:30:59;38.25;;;22.48;;
43678;SDS011;29279;50.858;4.392;2022-11-15T01:33:27;34.70;;;22.73;;
43678;SDS011;29279;50.858;4.392;2022-11-15T01:35:54;36.58;;;21.80;;
43678;SDS011;29279;50.858;4.392;2022-11-15T01:38:19;38.10;;;22.25;;
43678;SDS011;29279;50.858;4.392;2022-11-15T01:40:45;35.35;;;20.95;;
43678;SDS011;29279;50.858;4.392;2022-11-15T01:43:21;32.70;;;21.27;;
43678;SDS011;29279;50.858;4.392;2022-11-15T01:45:52;35.58;;;21.00;;
43678;SDS011;29279;50.858;4.392;2022-11-15T01:48:25;36.55;;;20.05;;
43678;SDS011;29279;50.858;4.392;2022-11-15T01:50:59;26.63;;;18.25;;
43678;SDS011;29279;50.858;4.392;2022-11-15T01:53:27;27.98;;;17.80;;
43678;SDS011;29279;50.858;4.392;2022-11-15T01:55:54;30.23;;;18.63;;
43678;SDS011;29279;50.858;4.392;2022-11-15T01:58:21;28.05;;;17.45;;
43678;SDS011;29279;50.858;4.392;2022-11-15T02:00:47;33.03;;;19.52;;
43678;SDS011;29279;50.858;4.392;2022-11-15T02:03:14;27.83;;;17.33;;
43678;SDS011;29279;50.858;4.392;2022-11-15T02:05:40;28.60;;;18.38;;
43678;SDS011;29279;50.858;4.392;2022-11-15T02:08:06;25.23;;;16.30;;
43678;SDS011;29279;50.858;4.392;2022-11-15T02:10:33;27.00;;;17.38;;
43678;SDS011;29279;50.858;4.392;2022-11-15T02:12:59;28.83;;;18.48;;
43678;SDS011;29279;50.858;4.392;2022-11-15T02:15:27;28.75;;;17.45;;
43678;SDS011;29279;50.858;4.392;2022-11-15T02:20:50;29.02;;;18.50;;
43678;SDS011;29279;50.858;4.392;2022-11-15T02:26:42;23.88;;;17.05;;
43678;SDS011;29279;50.858;4.392;2022-11-15T02:32:18;30.30;;;17.15;;
43678;SDS011;29279;50.858;4.392;2022-11-15T02:34:52;30.13;;;17.83;;
43678;SDS011;29279;50.858;4.392;2022-11-15T02:45:39;28.08;;;17.05;;
43678;SDS011;29279;50.858;4.392;2022-11-15T02:48:08;28.92;;;16.30;;
43678;SDS011;29279;50.858;4.392;2022-11-15T02:50:35;33.20;;;17.85;;
43678;SDS011;29279;50.858;4.392;2022-11-15T02:53:01;26.50;;;17.05;;
43678;SDS011;29279;50.858;4.392;2022-11-15T02:55:32;27.90;;;16.08;;
43678;SDS011;29279;50.858;4.392;2022-11-15T03:01:40;22.70;;;15.18;;
43678;SDS011;29279;50.858;4.392;2022-11-15T03:12:07;21.08;;;13.35;;
43678;SDS011;29279;50.858;4.392;2022-11-15T03:14:58;22.23;;;12.80;;
43678;SDS011;29279;50.858;4.392;2022-11-15T03:20:32;20.67;;;11.93;;
43678;SDS011;29279;50.858;4.392;2022-11-15T03:23:03;21.98;;;11.88;;
43678;SDS011;29279;50.858;4.392;2022-11-15T03:25:31;20.30;;;12.05;;
43678;SDS011;29279;50.858;4.392;2022-11-15T03:28:01;20.20;;;11.88;;
43678;SDS011;29279;50.858;4.392;2022-11-15T03:30:30;21.52;;;10.57;;
43678;SDS011;29279;50.858;4.392;2022-11-15T03:32:59;19.35;;;10.18;;
43678;SDS011;29279;50.858;4.392;2022-11-15T03:35:30;20.40;;;10.68;;
43678;SDS011;29279;50.858;4.392;2022-11-15T03:38:11;18.17;;;9.98;;
43678;SDS011;29279;50.858;4.392;2022-11-15T03:41:09;15.27;;;8.43;;
43678;SDS011;29279;50.858;4.392;2022-11-15T03:43:51;18.83;;;9.25;;
43678;SDS011;29279;50.858;4.392;2022-11-15T03:46:36;18.30;;;9.35;;
43678;SDS011;29279;50.858;4.392;2022-11-15T03:49:32;17.10;;;8.95;;
43678;SDS011;29279;50.858;4.392;2022-11-15T03:51:59;18.33;;;9.15;;
43678;SDS011;29279;50.858;4.392;2022-11-15T03:54:27;20.45;;;8.55;;
43678;SDS011;29279;50.858;4.392;2022-11-15T03:56:53;14.80;;;8.25;;
43678;SDS011;29279;50.858;4.392;2022-11-15T03:59:19;18.85;;;8.57;;
43678;SDS011;29279;50.858;4.392;2022-11-15T04:01:47;15.43;;;8.35;;
43678;SDS011;29279;50.858;4.392;2022-11-15T04:04:13;16.70;;;8.20;;
43678;SDS011;29279;50.858;4.392;2022-11-15T04:06:39;13.13;;;8.30;;
43678;SDS011;29279;50.858;4.392;2022-11-15T04:09:04;17.15;;;8.52;;
43678;SDS011;29279;50.858;4.392;2022-11-15T04:11:30;17.90;;;8.20;;
43678;SDS011;29279;50.858;4.392;2022-11-15T04:13:56;17.70;;;7.90;;
43678;SDS011;29279;50.858;4.392;2022-11-15T04:16:21;12.30;;;6.93;;
43678;SDS011;29279;50.858;4.392;2022-11-15T04:18:47;19.17;;;7.00;;
43678;SDS011;29279;50.858;4.392;2022-11-15T04:21:33;19.27;;;7.68;;
43678;SDS011;29279;50.858;4.392;2022-11-15T04:24:17;17.95;;;7.20;;
43678;SDS011;29279;50.858;4.392;2022-11-15T04:26:42;14.13;;;7.32;;
43678;SDS011;29279;50.858;4.392;2022-11-15T04:29:08;11.55;;;6.40;;
43678;SDS011;29279;50.858;4.392;2022-11-15T04:31:52;14.05;;;7.53;;
43678;SDS011;29279;50.858;4.392;2022-11-15T04:34:17;18.23;;;8.40;;
43678;SDS011;29279;50.858;4.392;2022-11-15T04:36:43;16.88;;;7.55;;
43678;SDS011;29279;50.858;4.392;2022-11-15T04:39:27;17.48;;;7.60;;
43678;SDS011;29279;50.858;4.392;2022-11-15T04:41:53;10.75;;;6.35;;
43678;SDS011;29279;50.858;4.392;2022-11-15T04:44:18;21.65;;;6.88;;
43678;SDS011;29279;50.858;4.392;2022-11-15T04:46:44;15.23;;;6.28;;
43678;SDS011;29279;50.858;4.392;2022-11-15T04:49:10;20.58;;;7.53;;
43678;SDS011;29279;50.858;4.392;2022-11-15T04:51:35;17.23;;;6.88;;
43678;SDS011;29279;50.858;4.392;2022-11-15T04:54:01;13.50;;;6.28;;
43678;SDS011;29279;50.858;4.392;2022-11-15T04:56:27;15.68;;;6.55;;
43678;SDS011;29279;50.858;4.392;2022-11-15T04:58:52;19.80;;;6.72;;
43678;SDS011;29279;50.858;4.392;2022-11-15T05:01:18;13.57;;;5.72;;
43678;SDS011;29279;50.858;4.392;2022-11-15T05:03:44;16.67;;;6.00;;
43678;SDS011;29279;50.858;4.392;2022-11-15T05:06:29;17.08;;;6.10;;
43678;SDS011;29279;50.858;4.392;2022-11-15T05:08:55;16.75;;;6.15;;
43678;SDS011;29279;50.858;4.392;2022-11-15T05:11:21;13.95;;;5.68;;
43678;SDS011;29279;50.858;4.392;2022-11-15T05:13:48;14.50;;;5.50;;
43678;SDS011;29279;50.858;4.392;2022-11-15T05:16:14;13.88;;;5.32;;
43678;SDS011;29279;50.858;4.392;2022-11-15T05:18:39;10.18;;;4.80;;
43678;SDS011;29279;50.858;4.392;2022-11-15T05:21:14;13.85;;;5.65;;
43678;SDS011;29279;50.858;4.392;2022-11-15T05:23:40;9.80;;;4.63;;
43678;SDS011;29279;50.858;4.392;2022-11-15T05:26:06;17.50;;;5.55;;
43678;SDS011;29279;50.858;4.392;2022-11-15T05:28:33;15.82;;;5.30;;
43678;SDS011;29279;50.858;4.392;2022-11-15T05:31:03;13.43;;;4.65;;
43678;SDS011;29279;50.858;4.392;2022-11-15T05:33:31;11.35;;;4.35;;
43678;SDS011;29279;50.858;4.392;2022-11-15T05:36:02;12.15;;;5.28;;
43678;SDS011;29279;50.858;4.392;2022-11-15T05:38:46;14.00;;;5.50;;
43678;SDS011;29279;50.858;4.392;2022-11-15T05:41:17;13.45;;;4.43;;
43678;SDS011;29279;50.858;4.392;2022-11-15T05:43:45;16.08;;;4.88;;
43678;SDS011;29279;50.858;4.392;2022-11-15T05:46:13;16.70;;;5.15;;
43678;SDS011;29279;50.858;4.392;2022-11-15T05:48:40;15.82;;;4.97;;
43678;SDS011;29279;50.858;4.392;2022-11-15T05:51:10;14.73;;;4.82;;
43678;SDS011;29279;50.858;4.392;2022-11-15T05:53:39;11.27;;;4.20;;
43678;SDS011;29279;50.858;4.392;2022-11-15T05:56:05;22.20;;;4.57;;
43678;SDS011;29279;50.858;4.392;2022-11-15T05:58:32;11.73;;;4.78;;
43678;SDS011;29279;50.858;4.392;2022-11-15T06:00:58;14.23;;;4.68;;
43678;SDS011;29279;50.858;4.392;2022-11-15T06:03:25;6.78;;;4.07;;
43678;SDS011;29279;50.858;4.392;2022-11-15T06:05:50;12.05;;;4.95;;
43678;SDS011;29279;50.858;4.392;2022-11-15T06:08:16;12.82;;;4.63;;
43678;SDS011;29279;50.858;4.392;2022-11-15T06:10:42;12.48;;;4.78;;
43678;SDS011;29279;50.858;4.392;2022-11-15T06:13:07;15.60;;;4.70;;
43678;SDS011;29279;50.858;4.392;2022-11-15T06:15:33;15.88;;;4.75;;
43678;SDS011;29279;50.858;4.392;2022-11-15T06:17:59;10.50;;;4.75;;
43678;SDS011;29279;50.858;4.392;2022-11-15T06:20:26;13.60;;;4.47;;
43678;SDS011;29279;50.858;4.392;2022-11-15T06:22:57;12.77;;;4.60;;
43678;SDS011;29279;50.858;4.392;2022-11-15T06:25:23;15.20;;;4.60;;
43678;SDS011;29279;50.858;4.392;2022-11-15T06:27:56;13.52;;;4.70;;
43678;SDS011;29279;50.858;4.392;2022-11-15T06:30:23;13.65;;;4.68;;
43678;SDS011;29279;50.858;4.392;2022-11-15T06:32:50;11.20;;;3.95;;
43678;SDS011;29279;50.858;4.392;2022-11-15T06:35:16;15.63;;;4.55;;
43678;SDS011;29279;50.858;4.392;2022-11-15T06:37:42;12.25;;;4.35;;
43678;SDS011;29279;50.858;4.392;2022-11-15T06:40:08;10.65;;;4.53;;
43678;SDS011;29279;50.858;4.392;2022-11-15T06:42:34;11.93;;;4.25;;
43678;SDS011;29279;50.858;4.392;2022-11-15T06:45:04;11.75;;;4.32;;
43678;SDS011;29279;50.858;4.392;2022-11-15T06:47:30;18.95;;;4.93;;
43678;SDS011;29279;50.858;4.392;2022-11-15T06:49:55;21.83;;;6.15;;
43678;SDS011;29279;50.858;4.392;2022-11-15T06:52:21;16.00;;;4.82;;
43678;SDS011;29279;50.858;4.392;2022-11-15T06:54:47;10.45;;;5.10;;
43678;SDS011;29279;50.858;4.392;2022-11-15T06:57:13;12.32;;;4.60;;
43678;SDS011;29279;50.858;4.392;2022-11-15T06:59:38;18.40;;;5.35;;
43678;SDS011;29279;50.858;4.392;2022-11-15T07:02:04;11.75;;;4.57;;
43678;SDS011;29279;50.858;4.392;2022-11-15T07:04:30;12.65;;;4.53;;
43678;SDS011;29279;50.858;4.392;2022-11-15T07:06:55;15.98;;;4.40;;
43678;SDS011;29279;50.858;4.392;2022-11-15T07:09:21;13.30;;;4.40;;
43678;SDS011;29279;50.858;4.392;2022-11-15T07:11:47;13.23;;;4.50;;
43678;SDS011;29279;50.858;4.392;2022-11-15T07:14:12;10.60;;;4.10;;
43678;SDS011;29279;50.858;4.392;2022-11-15T07:16:38;10.75;;;4.43;;
43678;SDS011;29279;50.858;4.392;2022-11-15T07:19:04;15.60;;;4.68;;
43678;SDS011;29279;50.858;4.392;2022-11-15T07:21:29;6.50;;;3.63;;
43678;SDS011;29279;50.858;4.392;2022-11-15T07:23:55;13.20;;;4.20;;
43678;SDS011;29279;50.858;4.392;2022-11-15T07:26:21;14.40;;;4.45;;
43678;SDS011;29279;50.858;4.392;2022-11-15T07:28:46;13.93;;;4.63;;
43678;SDS011;29279;50.858;4.392;2022-11-15T07:31:12;17.33;;;5.00;;
43678;SDS011;29279;50.858;4.392;2022-11-15T07:33:38;11.38;;;4.35;;
43678;SDS011;29279;50.858;4.392;2022-11-15T07:36:04;9.65;;;4.30;;
43678;SDS011;29279;50.858;4.392;2022-11-15T07:38:31;10.38;;;4.32;;
43678;SDS011;29279;50.858;4.392;2022-11-15T07:40:58;17.02;;;5.03;;
43678;SDS011;29279;50.858;4.392;2022-11-15T07:43:26;11.02;;;3.58;;
43678;SDS011;29279;50.858;4.392;2022-11-15T07:45:55;9.75;;;4.47;;
43678;SDS011;29279;50.858;4.392;2022-11-15T07:48:21;12.48;;;4.10;;
43678;SDS011;29279;50.858;4.392;2022-11-15T07:50:47;12.18;;;3.63;;
43678;SDS011;29279;50.858;4.392;2022-11-15T07:53:13;13.18;;;3.45;;
43678;SDS011;29279;50.858;4.392;2022-11-15T07:55:39;9.07;;;3.35;;
43678;SDS011;29279;50.858;4.392;2022-11-15T07:58:09;7.45;;;2.83;;
43678;SDS011;29279;50.858;4.392;2022-11-15T08:00:36;7.10;;;2.97;;
43678;SDS011;29279;50.858;4.392;2022-11-15T08:03:04;8.50;;;3.55;;
43678;SDS011;29279;50.858;4.392;2022-11-15T08:05:40;10.85;;;3.30;;
43678;SDS011;29279;50.858;4.392;2022-11-15T08:08:07;11.32;;;3.63;;
43678;SDS011;29279;50.858;4.392;2022-11-15T08:10:34;8.52;;;3.50;;
43678;SDS011;29279;50.858;4.392;2022-11-15T08:13:03;10.52;;;3.30;;
43678;SDS011;29279;50.858;4.392;2022-11-15T08:15:31;11.65;;;2.88;;
43678;SDS011;29279;50.858;4.392;2022-11-15T08:17:58;9.13;;;3.05;;
43678;SDS011;29279;50.858;4.392;2022-11-15T08:20:25;9.88;;;2.90;;
43678;SDS011;29279;50.858;4.392;2022-11-15T08:22:55;8.93;;;3.22;;
43678;SDS011;29279;50.858;4.392;2022-11-15T08:25:24;13.45;;;3.58;;
43678;SDS011;29279;50.858;4.392;2022-11-15T08:27:57;4.85;;;1.88;;
43678;SDS011;29279;50.858;4.392;2022-11-15T08:30:24;10.25;;;2.45;;
43678;SDS011;29279;50.858;4.392;2022-11-15T08:32:51;8.57;;;2.58;;
43678;SDS011;29279;50.858;4.392;2022-11-15T08:35:18;9.70;;;2.60;;
43678;SDS011;29279;50.858;4.392;2022-11-15T08:37:45;8.45;;;1.98;;
43678;SDS011;29279;50.858;4.392;2022-11-15T08:40:10;4.75;;;1.48;;
43678;SDS011;29279;50.858;4.392;2022-11-15T08:42:36;8.85;;;2.88;;
43678;SDS011;29279;50.858;4.392;2022-11-15T08:45:02;6.53;;;2.13;;
43678;SDS011;29279;50.858;4.392;2022-11-15T08:47:28;15.05;;;2.08;;
43678;SDS011;29279;50.858;4.392;2022-11-15T08:49:54;11.75;;;2.55;;
43678;SDS011;29279;50.858;4.392;2022-11-15T08:52:20;8.55;;;1.95;;
43678;SDS011;29279;50.858;4.392;2022-11-15T08:54:45;5.18;;;2.08;;
43678;SDS011;29279;50.858;4.392;2022-11-15T08:57:11;7.43;;;2.33;;
43678;SDS011;29279;50.858;4.392;2022-11-15T08:59:37;6.97;;;2.10;;
43678;SDS011;29279;50.858;4.392;2022-11-15T09:02:03;6.45;;;2.13;;
43678;SDS011;29279;50.858;4.392;2022-11-15T09:04:29;12.90;;;2.35;;
43678;SDS011;29279;50.858;4.392;2022-11-15T09:06:55;9.57;;;1.88;;
43678;SDS011;29279;50.858;4.392;2022-11-15T09:09:21;11.88;;;1.80;;
43678;SDS011;29279;50.858;4.392;2022-11-15T09:11:46;8.98;;;2.08;;
43678;SDS011;29279;50.858;4.392;2022-11-15T09:14:12;9.48;;;1.52;;
43678;SDS011;29279;50.858;4.392;2022-11-15T09:16:39;11.10;;;2.10;;
43678;SDS011;29279;50.858;4.392;2022-11-15T09:19:04;9.98;;;1.67;;
43678;SDS011;29279;50.858;4.392;2022-11-15T09:21:30;16.17;;;2.97;;
43678;SDS011;29279;50.858;4.392;2022-11-15T09:23:56;6.90;;;1.80;;
43678;SDS011;29279;50.858;4.392;2022-11-15T09:26:22;8.02;;;1.60;;
43678;SDS011;29279;50.858;4.392;2022-11-15T09:28:47;15.00;;;2.08;;
43678;SDS011;29279;50.858;4.392;2022-11-15T09:31:13;14.27;;;1.88;;
43678;SDS011;29279;50.858;4.392;2022-11-15T09:33:39;11.70;;;1.60;;
43678;SDS011;29279;50.858;4.392;2022-11-15T09:36:08;8.02;;;2.00;;
43678;SDS011;29279;50.858;4.392;2022-11-15T09:38:35;8.10;;;1.80;;
43678;SDS011;29279;50.858;4.392;2022-11-15T09:46:46;9.38;;;1.77;;
43678;SDS011;29279;50.858;4.392;2022-11-15T09:49:23;9.25;;;2.30;;
43678;SDS011;29279;50.858;4.392;2022-11-15T09:51:50;6.93;;;2.03;;
43678;SDS011;29279;50.858;4.392;2022-11-15T09:54:34;11.93;;;3.03;;
43678;SDS011;29279;50.858;4.392;2022-11-15T09:57:19;15.88;;;5.35;;
43678;SDS011;29279;50.858;4.392;2022-11-15T10:05:00;11.23;;;2.50;;
43678;SDS011;29279;50.858;4.392;2022-11-15T10:07:28;12.10;;;2.28;;
43678;SDS011;29279;50.858;4.392;2022-11-15T10:10:14;11.05;;;1.90;;
43678;SDS011;29279;50.858;4.392;2022-11-15T10:12:43;14.88;;;3.80;;
43678;SDS011;29279;50.858;4.392;2022-11-15T10:15:13;8.15;;;2.40;;
43678;SDS011;29279;50.858;4.392;2022-11-15T10:22:53;14.95;;;3.53;;
43678;SDS011;29279;50.858;4.392;2022-11-15T10:25:25;11.25;;;2.72;;
43678;SDS011;29279;50.858;4.392;2022-11-15T10:30:39;11.80;;;1.90;;
43678;SDS011;29279;50.858;4.392;2022-11-15T10:35:47;10.18;;;1.70;;
43678;SDS011;29279;50.858;4.392;2022-11-15T10:38:13;10.30;;;2.53;;
43678;SDS011;29279;50.858;4.392;2022-11-15T10:40:39;11.60;;;1.95;;
43678;SDS011;29279;50.858;4.392;2022-11-15T10:45:35;12.15;;;1.70;;
43678;SDS011;29279;50.858;4.392;2022-11-15T10:50:48;12.80;;;1.65;;
43678;SDS011;29279;50.858;4.392;2022-11-15T10:55:46;8.13;;;2.10;;
43678;SDS011;29279;50.858;4.392;2022-11-15T11:01:19;7.53;;;1.42;;
43678;SDS011;29279;50.858;4.392;2022-11-15T11:04:07;11.18;;;1.35;;
43678;SDS011;29279;50.858;4.392;2022-11-15T11:06:50;10.70;;;1.50;;
43678;SDS011;29279;50.858;4.392;2022-11-15T11:09:21;13.93;;;2.17;;
43678;SDS011;29279;50.858;4.392;2022-11-15T11:11:54;7.78;;;1.42;;
43678;SDS011;29279;50.858;4.392;2022-11-15T11:14:27;16.60;;;1.95;;
43678;SDS011;29279;50.858;4.392;2022-11-15T11:17:02;9.65;;;1.63;;
43678;SDS011;29279;50.858;4.392;2022-11-15T11:22:48;7.05;;;2.20;;
43678;SDS011;29279;50.858;4.392;2022-11-15T11:33:49;5.60;;;1.40;;
43678;SDS011;29279;50.858;4.392;2022-11-15T11:41:55;9.77;;;1.85;;
43678;SDS011;29279;50.858;4.392;2022-11-15T11:47:22;8.77;;;1.63;;
43678;SDS011;29279;50.858;4.392;2022-11-15T11:50:14;12.90;;;1.58;;
43678;SDS011;29279;50.858;4.392;2022-11-15T11:52:59;6.90;;;1.77;;
43678;SDS011;29279;50.858;4.392;2022-11-15T11:55:54;6.95;;;2.13;;
43678;SDS011;29279;50.858;4.392;2022-11-15T12:01:22;7.47;;;1.65;;
43678;SDS011;29279;50.858;4.392;2022-11-15T12:11:58;12.35;;;1.70;;
43678;SDS011;29279;50.858;4.392;2022-11-15T12:17:10;6.03;;;1.30;;
43678;SDS011;29279;50.858;4.392;2022-11-15T12:19:37;7.72;;;1.73;;
43678;SDS011;29279;50.858;4.392;2022-11-15T12:22:24;9.38;;;1.83;;
43678;SDS011;29279;50.858;4.392;2022-11-15T12:25:00;11.13;;;1.77;;
43678;SDS011;29279;50.858;4.392;2022-11-15T12:27:43;8.00;;;1.67;;
43678;SDS011;29279;50.858;4.392;2022-11-15T12:30:17;10.30;;;1.58;;
43678;SDS011;29279;50.858;4.392;2022-11-15T12:32:58;6.50;;;1.65;;
43678;SDS011;29279;50.858;4.392;2022-11-15T12:35:40;7.65;;;1.85;;
43678;SDS011;29279;50.858;4.392;2022-11-15T12:38:10;10.65;;;1.40;;
43678;SDS011;29279;50.858;4.392;2022-11-15T12:40:38;9.10;;;1.45;;
43678;SDS011;29279;50.858;4.392;2022-11-15T12:43:38;6.43;;;1.40;;
43678;SDS011;29279;50.858;4.392;2022-11-15T12:46:05;6.43;;;1.30;;
43678;SDS011;29279;50.858;4.392;2022-11-15T12:51:03;7.30;;;1.58;;
43678;SDS011;29279;50.858;4.392;2022-11-15T12:53:30;5.13;;;1.42;;
43678;SDS011;29279;50.858;4.392;2022-11-15T13:14:49;9.75;;;1.25;;
43678;SDS011;29279;50.858;4.392;2022-11-15T13:19:45;7.57;;;1.38;;
43678;SDS011;29279;50.858;4.392;2022-11-15T13:22:13;3.30;;;1.00;;
43678;SDS011;29279;50.858;4.392;2022-11-15T13:24:57;4.45;;;1.08;;
43678;SDS011;29279;50.858;4.392;2022-11-15T13:27:25;6.85;;;1.42;;
43678;SDS011;29279;50.858;4.392;2022-11-15T13:29:52;2.47;;;1.05;;
43678;SDS011;29279;50.858;4.392;2022-11-15T13:32:18;4.97;;;1.67;;
43678;SDS011;29279;50.858;4.392;2022-11-15T13:34:48;6.10;;;1.70;;
43678;SDS011;29279;50.858;4.392;2022-11-15T13:39:46;7.68;;;1.67;;
43678;SDS011;29279;50.858;4.392;2022-11-15T13:42:16;9.02;;;2.83;;
43678;SDS011;29279;50.858;4.392;2022-11-15T13:45:00;11.40;;;2.10;;
43678;SDS011;29279;50.858;4.392;2022-11-15T13:47:28;7.45;;;2.20;;
43678;SDS011;29279;50.858;4.392;2022-11-15T13:49:58;7.65;;;2.38;;
43678;SDS011;29279;50.858;4.392;2022-11-15T13:52:31;3.40;;;1.35;;
43678;SDS011;29279;50.858;4.392;2022-11-15T13:55:00;5.40;;;1.73;;
43678;SDS011;29279;50.858;4.392;2022-11-15T13:57:38;7.15;;;1.98;;
43678;SDS011;29279;50.858;4.392;2022-11-15T14:03:19;4.32;;;1.77;;
43678;SDS011;29279;50.858;4.392;2022-11-15T14:08:36;11.27;;;4.90;;
43678;SDS011;29279;50.858;4.392;2022-11-15T14:13:41;5.25;;;1.60;;
43678;SDS011;29279;50.858;4.392;2022-11-15T14:16:23;4.93;;;1.88;;
43678;SDS011;29279;50.858;4.392;2022-11-15T14:18:59;5.80;;;2.03;;
43678;SDS011;29279;50.858;4.392;2022-11-15T14:21:25;4.75;;;1.30;;
43678;SDS011;29279;50.858;4.392;2022-11-15T14:23:50;7.90;;;3.22;;
43678;SDS011;29279;50.858;4.392;2022-11-15T14:28:53;5.25;;;1.88;;
43678;SDS011;29279;50.858;4.392;2022-11-15T14:31:19;7.97;;;1.85;;
43678;SDS011;29279;50.858;4.392;2022-11-15T14:33:45;3.42;;;1.65;;
43678;SDS011;29279;50.858;4.392;2022-11-15T14:36:13;8.18;;;2.00;;
43678;SDS011;29279;50.858;4.392;2022-11-15T14:38:40;9.82;;;2.10;;
43678;SDS011;29279;50.858;4.392;2022-11-15T14:41:24;3.65;;;1.77;;
43678;SDS011;29279;50.858;4.392;2022-11-15T14:43:51;8.10;;;2.00;;
43678;SDS011;29279;50.858;4.392;2022-11-15T14:46:17;7.93;;;2.10;;
43678;SDS011;29279;50.858;4.392;2022-11-15T14:48:43;21.35;;;2.60;;
43678;SDS011;29279;50.858;4.392;2022-11-15T14:51:13;7.68;;;2.30;;
43678;SDS011;29279;50.858;4.392;2022-11-15T14:53:40;7.40;;;3.08;;
43678;SDS011;29279;50.858;4.392;2022-11-15T14:56:07;2.63;;;1.58;;
43678;SDS011;29279;50.858;4.392;2022-11-15T14:58:33;4.85;;;2.00;;
43678;SDS011;29279;50.858;4.392;2022-11-15T15:00:59;10.27;;;1.63;;
43678;SDS011;29279;50.858;4.392;2022-11-15T15:03:24;5.25;;;1.75;;
43678;SDS011;29279;50.858;4.392;2022-11-15T15:05:50;3.45;;;1.38;;
43678;SDS011;29279;50.858;4.392;2022-11-15T15:08:16;4.15;;;1.20;;
43678;SDS011;29279;50.858;4.392;2022-11-15T15:10:42;4.60;;;1.65;;
43678;SDS011;29279;50.858;4.392;2022-11-15T15:13:19;4.68;;;1.50;;
43678;SDS011;29279;50.858;4.392;2022-11-15T15:15:47;4.20;;;1.90;;
43678;SDS011;29279;50.858;4.392;2022-11-15T15:18:13;4.20;;;1.67;;
43678;SDS011;29279;50.858;4.392;2022-11-15T15:20:40;4.13;;;1.95;;
43678;SDS011;29279;50.858;4.392;2022-11-15T15:23:17;4.60;;;1.83;;
43678;SDS011;29279;50.858;4.392;2022-11-15T15:25:44;5.60;;;2.00;;
43678;SDS011;29279;50.858;4.392;2022-11-15T15:28:11;4.97;;;1.35;;
43678;SDS011;29279;50.858;4.392;2022-11-15T15:30:37;2.17;;;1.30;;
43678;SDS011;29279;50.858;4.392;2022-11-15T15:33:03;5.50;;;1.73;;
43678;SDS011;29279;50.858;4.392;2022-11-15T15:35:30;6.00;;;1.65;;
43678;SDS011;29279;50.858;4.392;2022-11-15T15:37:57;6.25;;;1.80;;
43678;SDS011;29279;50.858;4.392;2022-11-15T15:40:23;5.40;;;1.80;;
43678;SDS011;29279;50.858;4.392;2022-11-15T15:42:50;5.10;;;1.95;;
43678;SDS011;29279;50.858;4.392;2022-11-15T15:45:16;3.45;;;1.65;;
43678;SDS011;29279;50.858;4.392;2022-11-15T15:47:43;3.13;;;1.45;;
43678;SDS011;29279;50.858;4.392;2022-11-15T15:50:14;3.17;;;2.22;;
43678;SDS011;29279;50.858;4.392;2022-11-15T15:52:51;6.43;;;2.20;;
43678;SDS011;29279;50.858;4.392;2022-11-15T15:55:18;5.55;;;2.28;;
43678;SDS011;29279;50.858;4.392;2022-11-15T15:57:44;4.63;;;2.55;;
43678;SDS011;29279;50.858;4.392;2022-11-15T16:00:11;4.32;;;1.77;;
43678;SDS011;29279;50.858;4.392;2022-11-15T16:02:37;5.47;;;2.25;;
43678;SDS011;29279;50.858;4.392;2022-11-15T16:05:03;8.73;;;2.70;;
43678;SDS011;29279;50.858;4.392;2022-11-15T16:07:29;5.43;;;2.20;;
43678;SDS011;29279;50.858;4.392;2022-11-15T16:09:55;3.83;;;2.42;;
43678;SDS011;29279;50.858;4.392;2022-11-15T16:12:27;2.93;;;2.13;;
43678;SDS011;29279;50.858;4.392;2022-11-15T16:14:58;4.72;;;2.28;;
43678;SDS011;29279;50.858;4.392;2022-11-15T16:17:33;7.22;;;1.95;;
43678;SDS011;29279;50.858;4.392;2022-11-15T16:20:02;6.07;;;2.40;;
43678;SDS011;29279;50.858;4.392;2022-11-15T16:22:29;9.05;;;2.72;;
43678;SDS011;29279;50.858;4.392;2022-11-15T16:24:55;4.75;;;2.35;;
43678;SDS011;29279;50.858;4.392;2022-11-15T16:27:22;7.30;;;3.10;;
43678;SDS011;29279;50.858;4.392;2022-11-15T16:29:48;5.28;;;2.47;;
43678;SDS011;29279;50.858;4.392;2022-11-15T16:32:14;4.32;;;2.20;;
43678;SDS011;29279;50.858;4.392;2022-11-15T16:34:44;4.85;;;2.55;;
43678;SDS011;29279;50.858;4.392;2022-11-15T16:37:18;8.15;;;2.25;;
43678;SDS011;29279;50.858;4.392;2022-11-15T16:39:48;4.20;;;2.50;;
43678;SDS011;29279;50.858;4.392;2022-11-15T16:42:14;4.07;;;2.67;;
43678;SDS011;29279;50.858;4.392;2022-11-15T16:44:39;4.95;;;2.28;;
43678;SDS011;29279;50.858;4.392;2022-11-15T16:47:09;3.13;;;2.60;;
43678;SDS011;29279;50.858;4.392;2022-11-15T16:49:47;4.75;;;2.67;;
43678;SDS011;29279;50.858;4.392;2022-11-15T16:52:12;7.93;;;3.00;;
43678;SDS011;29279;50.858;4.392;2022-11-15T16:54:38;5.97;;;2.78;;
43678;SDS011;29279;50.858;4.392;2022-11-15T16:57:04;4.75;;;2.67;;
43678;SDS011;29279;50.858;4.392;2022-11-15T16:59:30;6.68;;;2.75;;
43678;SDS011;29279;50.858;4.392;2022-11-15T17:01:57;6.93;;;2.17;;